createdAt,value
2018-09-21T00:01:22.530Z,23.10
2018-09-21T00:06:25.839Z,23.09
2018-09-21T00:11:29.221Z,23.06
2018-09-21T00:16:32.576Z,23.04
2018-09-21T00:21:35.880Z,23.02
2018-09-21T00:26:39.216Z,22.97
2018-09-21T00:31:42.500Z,22.95
2018-09-21T00:36:46.016Z,22.88
2018-09-21T00:41:49.405Z,22.83
2018-09-21T00:46:52.772Z,22.78
2018-09-21T00:51:56.064Z,22.75
2018-09-21T00:56:59.395Z,22.69
2018-09-21T01:02:02.725Z,22.66
2018-09-21T01:07:06.039Z,22.63
2018-09-21T01:12:09.365Z,22.60
2018-09-21T01:17:12.707Z,22.59
2018-09-21T01:22:16.074Z,22.57
2018-09-21T01:27:19.350Z,22.54
2018-09-21T01:32:22.716Z,22.53
2018-09-21T01:37:26.004Z,22.50
2018-09-21T01:42:29.308Z,22.48
2018-09-21T01:47:32.742Z,22.46
2018-09-21T01:52:36.077Z,22.43
2018-09-21T01:57:39.372Z,22.37
2018-09-21T02:02:42.727Z,22.34
2018-09-21T02:07:46.058Z,22.29
2018-09-21T02:12:49.371Z,22.25
2018-09-21T02:17:52.706Z,22.23
2018-09-21T02:22:56.052Z,22.18
2018-09-21T02:27:59.327Z,22.12
2018-09-21T02:33:02.658Z,22.09
2018-09-21T02:38:06.115Z,22.07
2018-09-21T02:43:09.466Z,22.05
2018-09-21T02:48:12.821Z,22.05
2018-09-21T02:53:16.206Z,22.02
2018-09-21T02:58:19.524Z,22.01
2018-09-21T03:03:22.855Z,21.99
2018-09-21T03:08:26.183Z,21.99
2018-09-21T03:13:29.581Z,21.97
2018-09-21T03:18:32.912Z,21.95
2018-09-21T03:23:36.233Z,21.89
2018-09-21T03:28:39.559Z,21.87
2018-09-21T03:33:42.871Z,21.82
2018-09-21T03:38:46.251Z,21.79
2018-09-21T03:43:49.637Z,21.81
2018-09-21T03:48:52.956Z,21.76
2018-09-21T03:53:56.419Z,21.75
2018-09-21T03:58:59.754Z,21.70
2018-09-21T04:04:03.172Z,21.67
2018-09-21T04:09:08.697Z,21.69
2018-09-21T04:14:11.983Z,21.70
2018-09-21T04:19:15.282Z,21.72
2018-09-21T04:24:18.613Z,21.73
2018-09-21T04:29:21.901Z,21.72
2018-09-21T04:34:25.224Z,21.73
2018-09-21T04:39:28.646Z,21.71
2018-09-21T04:44:31.930Z,21.69
2018-09-21T04:49:35.225Z,21.68
2018-09-21T04:54:38.548Z,21.63
2018-09-21T04:59:41.890Z,21.60
2018-09-21T05:04:45.228Z,21.59
2018-09-21T05:09:48.535Z,21.57
2018-09-21T05:14:51.926Z,21.60
2018-09-21T05:19:56.149Z,21.63
2018-09-21T05:24:59.424Z,21.63
2018-09-21T05:30:02.850Z,21.65
2018-09-21T05:35:06.714Z,21.75
2018-09-21T05:40:10.022Z,21.82
2018-09-21T05:45:13.400Z,21.92
2018-09-21T05:50:16.879Z,21.99
2018-09-21T05:55:20.225Z,22.12
2018-09-21T06:00:23.586Z,22.28
2018-09-21T06:05:26.915Z,22.36
2018-09-21T06:10:30.244Z,22.44
2018-09-21T06:15:33.606Z,22.53
2018-09-21T06:20:36.883Z,22.66
2018-09-21T06:25:40.164Z,22.73
2018-09-21T06:30:43.447Z,22.82
2018-09-21T06:35:46.759Z,22.91
2018-09-21T06:40:50.055Z,23.05
2018-09-21T06:45:53.331Z,23.15
2018-09-21T06:50:56.627Z,23.26
2018-09-21T06:55:59.932Z,23.29
2018-09-21T07:01:03.218Z,23.28
2018-09-21T07:06:06.499Z,23.24
2018-09-21T07:11:09.795Z,23.19
2018-09-21T07:16:13.086Z,23.16
2018-09-21T07:21:16.419Z,23.15
2018-09-21T07:26:19.702Z,23.17
2018-09-21T07:31:23.097Z,23.19
2018-09-21T07:36:26.646Z,23.19
2018-09-21T07:41:29.936Z,23.24
2018-09-21T07:46:33.239Z,23.44
2018-09-21T07:51:36.519Z,23.57
2018-09-21T07:56:39.846Z,23.79
2018-09-21T08:01:43.171Z,24.04
2018-09-21T08:06:46.531Z,24.24
2018-09-21T08:11:49.874Z,24.37
2018-09-21T08:16:53.191Z,24.57
2018-09-21T08:21:56.535Z,24.75
2018-09-21T08:26:59.863Z,24.87
2018-09-21T08:32:03.199Z,25.02
2018-09-21T08:37:06.895Z,25.16
2018-09-21T08:42:10.166Z,25.29
2018-09-21T08:47:13.480Z,25.38
2018-09-21T08:52:16.830Z,25.49
2018-09-21T08:57:20.368Z,25.65
2018-09-21T09:02:24.286Z,25.83
2018-09-21T09:07:27.676Z,26.03
2018-09-21T09:12:30.990Z,26.19
2018-09-21T09:17:34.297Z,26.49
2018-09-21T09:22:37.596Z,26.76
2018-09-21T09:27:40.911Z,27.00
2018-09-21T09:32:44.210Z,27.53
2018-09-21T09:37:47.533Z,27.92
2018-09-21T09:42:53.022Z,27.97
2018-09-21T09:47:56.401Z,27.96
2018-09-21T09:52:59.719Z,27.91
2018-09-21T09:58:03.024Z,27.69
2018-09-21T10:03:06.334Z,27.57
2018-09-21T10:08:10.085Z,27.59
2018-09-21T10:13:13.418Z,28.04
2018-09-21T10:18:16.763Z,28.19
2018-09-21T10:23:20.102Z,28.13
2018-09-21T10:28:23.590Z,28.33
2018-09-21T10:33:26.796Z,28.28
2018-09-21T10:38:30.115Z,28.60
2018-09-21T10:43:33.471Z,28.73
2018-09-21T10:48:36.795Z,29.17
2018-09-21T10:53:40.143Z,29.75
2018-09-21T10:58:43.554Z,30.21
2018-09-21T11:03:46.934Z,30.03
2018-09-21T11:08:51.440Z,29.60
2018-09-21T11:13:54.799Z,30.17
2018-09-21T11:18:58.371Z,32.47
2018-09-21T11:24:01.741Z,30.52
2018-09-21T11:29:05.143Z,30.84
2018-09-21T11:34:08.506Z,31.59
2018-09-21T11:39:12.400Z,31.49
2018-09-21T11:44:15.723Z,33.70
2018-09-21T11:49:19.056Z,30.54
2018-09-21T11:54:22.434Z,29.86
2018-09-21T11:59:25.768Z,29.38
2018-09-21T12:04:40.630Z,29.17
2018-09-21T12:09:44.028Z,28.91
2018-09-21T12:14:47.354Z,28.37
2018-09-21T12:19:50.748Z,28.09
2018-09-21T12:24:54.109Z,27.92
2018-09-21T12:29:57.575Z,27.83
2018-09-21T12:35:00.953Z,27.71
2018-09-21T12:40:04.542Z,27.60
2018-09-21T12:45:08.017Z,27.54
2018-09-21T12:50:11.408Z,27.52
2018-09-21T12:55:15.040Z,27.49
2018-09-21T13:00:18.451Z,27.50
2018-09-21T13:05:21.803Z,27.49
2018-09-21T13:10:25.190Z,27.56
2018-09-21T13:15:28.730Z,27.68
2018-09-21T13:20:32.869Z,27.75
2018-09-21T13:25:36.234Z,27.84
2018-09-21T13:30:39.553Z,28.09
2018-09-21T13:35:42.911Z,28.36
2018-09-21T13:40:46.340Z,28.18
2018-09-21T13:45:49.675Z,27.78
2018-09-21T13:50:53.006Z,27.65
2018-09-21T13:55:56.390Z,27.56
2018-09-21T14:00:59.715Z,27.64
2018-09-21T14:06:03.989Z,27.74
2018-09-21T14:11:07.319Z,27.86
2018-09-21T14:16:10.659Z,27.84
2018-09-21T14:21:14.306Z,27.75
2018-09-21T14:26:17.670Z,27.65
2018-09-21T14:31:20.987Z,27.50
2018-09-21T14:36:24.349Z,27.35
2018-09-21T14:41:27.707Z,27.11
2018-09-21T14:46:31.074Z,26.95
2018-09-21T14:51:35.019Z,26.85
2018-09-21T14:56:38.856Z,26.71
2018-09-21T15:01:42.254Z,26.23
2018-09-21T15:06:45.583Z,25.88
2018-09-21T15:11:49.048Z,25.75
2018-09-21T15:16:52.397Z,25.76
2018-09-21T15:21:55.747Z,25.82
2018-09-21T15:26:59.054Z,24.58
2018-09-21T15:32:02.488Z,21.79
2018-09-21T15:37:05.889Z,20.56
2018-09-21T15:42:09.246Z,20.03
2018-09-21T15:47:12.605Z,19.90
2018-09-21T15:52:16.039Z,19.57
2018-09-21T15:57:19.447Z,19.72
2018-09-21T16:02:22.791Z,19.51
2018-09-21T16:07:26.207Z,19.47
2018-09-21T16:12:29.563Z,19.40
2018-09-21T16:17:33.000Z,19.29
2018-09-21T16:22:36.347Z,19.35
2018-09-21T16:27:39.689Z,19.38
2018-09-21T16:32:43.031Z,19.49
2018-09-21T16:37:46.397Z,19.41
2018-09-21T16:42:49.747Z,19.37
2018-09-21T16:47:53.075Z,19.29
2018-09-21T16:52:56.439Z,19.20
2018-09-21T16:57:59.773Z,19.14
2018-09-21T17:03:03.171Z,19.16
2018-09-21T17:08:06.531Z,18.85
2018-09-21T17:13:09.850Z,18.60
2018-09-21T17:18:13.236Z,18.62
2018-09-21T17:23:17.057Z,18.46
2018-09-21T17:28:20.462Z,18.14
2018-09-21T17:33:24.626Z,17.87
2018-09-21T17:38:29.037Z,17.62
2018-09-21T17:43:33.292Z,17.46
2018-09-21T17:48:37.206Z,17.36
2018-09-21T17:53:41.205Z,17.30
2018-09-21T17:58:44.937Z,17.27
2018-09-21T18:03:48.795Z,17.27
2018-09-21T18:08:53.003Z,17.29
2018-09-21T18:13:56.750Z,17.25
2018-09-21T18:19:01.004Z,17.07
2018-09-21T18:24:05.278Z,16.85
2018-09-21T18:29:09.224Z,16.83
2018-09-21T18:34:12.634Z,16.88
2018-09-21T18:39:15.968Z,16.79
2018-09-21T18:44:19.316Z,16.85
2018-09-21T18:49:22.686Z,16.86
2018-09-21T18:54:26.265Z,16.83
2018-09-21T18:59:29.633Z,16.77
2018-09-21T19:04:32.923Z,16.76
2018-09-21T19:09:36.276Z,16.77
2018-09-21T19:14:39.895Z,16.77
2018-09-21T19:19:43.178Z,16.70
2018-09-21T19:24:46.596Z,16.60
2018-09-21T19:29:49.986Z,16.63
2018-09-21T19:34:53.299Z,16.59
2018-09-21T19:39:56.607Z,16.51
2018-09-21T19:44:59.975Z,16.42
2018-09-21T19:50:04.084Z,16.43
2018-09-21T19:55:07.380Z,16.43
2018-09-21T20:00:10.698Z,16.43
2018-09-21T20:05:14.036Z,16.43
2018-09-21T20:10:17.343Z,16.37
2018-09-21T20:15:20.657Z,16.32
2018-09-21T20:20:23.996Z,16.26
2018-09-21T20:25:27.362Z,16.26
2018-09-21T20:30:36.054Z,16.22
2018-09-21T20:35:39.419Z,16.27
2018-09-21T20:40:42.666Z,16.22
2018-09-21T20:45:46.019Z,16.11
2018-09-21T20:50:49.359Z,16.03
2018-09-21T20:55:52.686Z,16.05
2018-09-21T21:00:55.977Z,15.95
2018-09-21T21:05:59.363Z,15.87
2018-09-21T21:11:02.675Z,15.86
2018-09-21T21:16:05.972Z,15.88
2018-09-21T21:21:09.267Z,15.81
2018-09-21T21:26:12.578Z,15.79
2018-09-21T21:31:15.887Z,15.72
2018-09-21T21:36:19.520Z,15.74
2018-09-21T21:41:22.831Z,15.69
2018-09-21T21:46:26.163Z,15.61
2018-09-21T21:51:29.522Z,15.52
2018-09-21T21:56:32.822Z,15.42
2018-09-21T22:01:41.446Z,15.41
2018-09-21T22:06:44.758Z,15.36
2018-09-21T22:11:53.474Z,15.32
2018-09-21T22:16:56.782Z,15.27
2018-09-21T22:22:00.107Z,15.23
2018-09-21T22:27:03.440Z,15.23
2018-09-21T22:32:06.963Z,15.18
2018-09-21T22:37:10.272Z,15.18
2018-09-21T22:42:13.670Z,15.18
2018-09-21T22:47:17.102Z,15.12
2018-09-21T22:52:20.386Z,15.06
2018-09-21T22:57:23.743Z,15.08
2018-09-21T23:02:27.051Z,15.08
2018-09-21T23:07:30.358Z,15.02
2018-09-21T23:12:33.704Z,15.06
2018-09-21T23:17:37.042Z,15.07
2018-09-21T23:22:40.356Z,15.06
2018-09-21T23:27:43.643Z,15.07
2018-09-21T23:32:47.031Z,14.99
2018-09-21T23:37:50.386Z,15.06
2018-09-21T23:42:53.670Z,15.06
2018-09-21T23:47:56.975Z,15.06
2018-09-21T23:53:00.320Z,14.94
2018-09-21T23:58:03.666Z,14.90
